BTV weather

Burlington International Airport
Burlington, Vermont, United States

Public forecast

Using degrees Fahrenheit for public forecast. Weather courtesy of forecast.io.

Current aviation weather report (METAR) for Burlington International Airport

Retrieved 2019/11/19 23:54 UTC (54 minutes ago):

KBTV 192354Z 34004KT 10SM OVC022 01/M02 A2989 RMK AO2 SLP126 4/003 60001 T00061017 10011 20006 53020

Aviation forecast (TAF) for Burlington International Airport

Retrieved 2019-11-20 00:28 UTC (20 minutes ago):

TAF KBTV 192325Z 2000/2024 34005KT P6SM BKN015 FM200800 VRB03KT 6SM BR VCSH OVC015 FM201300 35006KT 4SM -SHSN BR OVC012 FM202000 34007KT 3SM BR VCSH OVC011